Etusivu
METAR-TAF:

METAR-TAF

Lentoasemat :

Red Wing Regional Airport

Red Wing, Minnesota, Yhdysvallat

Leveyspiiri: 44-35-25N, Pituuspiiri: 092-29-10W, korkeus merenpinnasta: 239 m

Tämänhetkinen sää

Tämä raportti tehtiin 23 minuuttia sitten, kello 08.35 UTC
Tuuli 7 kn etelästä puuskistuen 14 kn:hen
Lämpötila -4°C
Kosteus 80%
Ilmanpaine 1015 hPa
Näkyvyys: 16.1 km
Hajonneita pilviä 2100 ft:n korkeudessa
Pilvistä 3100 ft:n korkeudessa

METAR: KRGK 220835Z AUTO 19007G14KT 10SM BKN021 OVC031 M04/M07 A2998 RMK AO2

Aika: 02:58 (08:58 UTC)


TAF: puuttuu

Säähavainnot ja -ennusteet yli 4000 lentoasemalta (METAR- ja TAF-raportit).

Käytössä olevat sääasemat on merkitty karttaan keltaisilla ja punaisilla pisteillä.

Aseta hiiri pisteen päälle nähdäksesi sääaseman nimen.

Klikkaa sitten nähdäksesi säähavainnot ja -ennusteet.

Kartan vaihtaminen: klikkaa mustalla rastilla varustettuja vihreitä pisteitä, niin voit zoomata sisään; viivalla varustettua vihreää pistettä, niin voit zoomata ulos tai vihreitä nuolia, niin pääset viereisille kartoille.


METAR-TAF: